Terminal Aerodrome Forecast
Issued by NWS Charleston, WV

Current Version | Previous Version | Graphics & Text | Print | Product List | Glossary On
Versions: 1 2 3 4 5 6 7 8 9 10 11 12 13 14 15 16 17 18 19 20 21 22 23
231
FTUS41 KRLX 190252 AAA
TAFBKW
TAF AMD
KBKW 190252Z 1903/1924 26011G17KT P6SM SKC
     FM190500 26013G28KT P6SM -SHRA SCT025 BKN050
     FM190700 28013G23KT P6SM BKN020 WS003/28010KT
     FM191000 28013G33KT P6SM BKN035 WS005/29020KT
     FM191200 28014G30KT P6SM BKN030=

USA.gov is the U.S. government's official web portal to all federal, state and local government web resources and services.